This is the latest recevied weather packets stored in our database for station/object W6DSP. If no packets are shown the sender has not sent any weather packets the latest 10 day(s).
| Time | Temp. | Humidity | Pressure | Rain* | Wind** | Luminosity | Snow |
|---|---|---|---|---|---|---|---|
| 1777961741 | 13.89° C | 89% | 1004.6 hPa | 3.3 mm | - | - | - |
| 1777961013 | 13.89° C | 89% | 1005.5 hPa | 3.81 mm | - | - | - |
| 1777960268 | 13.89° C | 88% | 1005.3 hPa | 4.32 mm | - | - | - |
| 1777959574 | 14.44° C | 87% | 1005.2 hPa | 1.02 mm | - | - | - |
| 1777958843 | 14.44° C | 86% | 1004.8 hPa | 2.54 mm | - | - | - |
| 1777958148 | 15° C | 84% | 1004.6 hPa | 0 mm | - | - | - |
| 1777957411 | 15° C | 81% | 1004.7 hPa | 0 mm | - | - | - |
| 1777956713 | 16.11° C | 77% | 1004.5 hPa | 0 mm | - | - | - |
| 1777956017 | 17.22° C | 71% | 1004.5 hPa | 0 mm | - | - | - |
| 1777955327 | 17.78° C | 67% | 1004.1 hPa | 0 mm | - | - | - |
| 1777954623 | 18.33° C | 65% | 1003.7 hPa | 0 mm | - | - | - |
| 1777953928 | 19.44° C | 61% | 1003.6 hPa | 0 mm | - | - | - |
| 1777953217 | 19.44° C | 62% | 1003.6 hPa | 0 mm | - | - | - |
| 1777952509 | 20° C | 60% | 1003.1 hPa | 0 mm | - | - | - |
| 1777951754 | 20° C | 58% | 1002.5 hPa | 0 mm | - | - | - |
| 1777951024 | 20° C | 58% | 1002.6 hPa | 0 mm | - | - | - |
| 1777950301 | 20° C | 57% | 1002.7 hPa | 0 mm | - | - | - |
| 1777949553 | 20° C | 57% | 1002.7 hPa | 0 mm | - | - | - |
| 1777948793 | 20° C | 57% | 1002.7 hPa | 0 mm | - | - | - |
| 1777948073 | 20° C | 58% | 1002.6 hPa | 0 mm | - | - | - |
| 1777947313 | 19.44° C | 58% | 1002.7 hPa | 0 mm | - | - | - |
| 1777946609 | 20° C | 58% | 1002.6 hPa | 0 mm | - | - | - |
| 1777945913 | 20.56° C | 55% | 1002.5 hPa | 0 mm | - | - | - |
| 1777945222 | 20.56° C | 58% | 1002.3 hPa | 0 mm | - | - | - |
| 1777944480 | 20° C | 60% | 1002.2 hPa | 0 mm | - | - | - |
* Rain latest hour (hover to see other rain measurements)
** Current wind speed in m/s (hover to see current wind gust speed)